Time;durP1;ratioP1;P1;durP2;ratioP2;P2;SDS_P1;SDS_P2;PMS_P1;PMS_P2;Temp;Humidity;BMP_temperature;BMP_pressure;BME280_temperature;BME280_humidity;BME280_pressure;Samples;Min_cycle;Max_cycle;Signal;HPM_P1;HPM_P2
2022/12/17 13:06:39;;;;;;;53.30;28.73;;;6.10;99.90;;;;;;5055492;28;20072;-72
2022/12/17 13:09:14;;;;;;;51.97;27.92;;;5.90;99.90;;;;;;5059274;28;20024;-72
2022/12/17 13:11:42;;;;;;;52.88;30.48;;;5.80;99.90;;;;;;5075476;28;20031;-72
2022/12/17 13:14:25;;;;;;;56.70;30.75;;;5.80;99.90;;;;;;5075567;28;20020;-72
2022/12/17 13:16:58;;;;;;;59.35;32.72;;;5.70;99.90;;;;;;5074906;28;20036;-72
2022/12/17 13:19:30;;;;;;;55.13;29.63;;;5.70;99.90;;;;;;5075163;28;20056;-72
2022/12/17 13:22:17;;;;;;;53.03;29.67;;;5.50;99.90;;;;;;5075416;28;20039;-71
2022/12/17 13:24:48;;;;;;;54.42;30.70;;;5.60;99.90;;;;;;5067696;28;20033;-72
2022/12/17 13:27:30;;;;;;;49.90;26.25;;;5.60;99.90;;;;;;5074934;28;20040;-72
2022/12/17 13:30:09;;;;;;;50.80;27.35;;;5.60;99.90;;;;;;5074982;28;20033;-72
2022/12/17 13:33:03;;;;;;;46.63;27.88;;;5.60;99.90;;;;;;5074957;28;20466;-72
2022/12/17 13:36:05;;;;;;;67.82;33.95;;;5.50;99.90;;;;;;5074974;28;20020;-72
2022/12/17 13:38:50;;;;;;;88.30;41.35;;;5.50;99.90;;;;;;5074693;28;20031;-72
2022/12/17 13:41:25;;;;;;;69.28;33.25;;;5.50;99.90;;;;;;5074803;28;20077;-72
2022/12/17 13:43:56;;;;;;;62.60;32.72;;;5.50;99.90;;;;;;5074242;28;20020;-72
2022/12/17 13:46:41;;;;;;;68.28;35.10;;;5.60;99.90;;;;;;5074809;28;20028;-72
2022/12/17 13:49:28;;;;;;;80.13;38.67;;;5.60;99.90;;;;;;5074831;28;20042;-72
2022/12/17 13:52:17;;;;;;;73.75;37.63;;;5.60;99.90;;;;;;5056675;28;20497;-72
2022/12/17 13:54:43;;;;;;;67.45;35.65;;;5.60;99.90;;;;;;5054733;28;20071;-72
2022/12/17 13:57:14;;;;;;;73.72;36.10;;;5.50;99.90;;;;;;5054784;28;20042;-72
2022/12/17 13:59:40;;;;;;;65.10;33.17;;;5.50;99.90;;;;;;5054685;28;20494;-72
2022/12/17 14:02:29;;;;;;;90.55;40.92;;;5.60;99.90;;;;;;5054498;28;20392;-72
2022/12/17 14:04:58;;;;;;;65.35;34.90;;;5.60;99.90;;;;;;5054539;28;20025;-72
2022/12/17 14:07:26;;;;;;;88.53;40.45;;;5.60;99.90;;;;;;5053346;28;20044;-72
2022/12/17 14:09:53;;;;;;;87.00;41.10;;;5.50;99.90;;;;;;5064595;28;20119;-72
2022/12/17 14:12:24;;;;;;;78.10;40.70;;;5.60;99.90;;;;;;5074452;28;20032;-72
2022/12/17 14:15:23;;;;;;;99.13;45.72;;;5.50;99.90;;;;;;5074364;28;20074;-72
2022/12/17 14:17:50;;;;;;;83.00;40.78;;;5.50;99.90;;;;;;5071048;28;20047;-72
2022/12/17 14:20:19;;;;;;;83.95;39.50;;;5.50;99.90;;;;;;5074350;28;20081;-72
2022/12/17 14:22:55;;;;;;;96.57;41.40;;;5.50;99.90;;;;;;5074313;28;20478;-72
2022/12/17 14:25:24;;;;;;;95.05;41.38;;;5.50;99.90;;;;;;5074282;28;20032;-72
2022/12/17 14:27:59;;;;;;;95.43;40.63;;;5.50;99.90;;;;;;5074310;28;20025;-72
2022/12/17 14:30:40;;;;;;;82.35;40.92;;;5.50;99.90;;;;;;5074278;28;20043;-71
2022/12/17 14:33:29;;;;;;;85.57;41.88;;;5.40;99.90;;;;;;5074328;28;20039;-72
2022/12/17 14:35:59;;;;;;;71.45;37.63;;;5.40;99.90;;;;;;5074375;28;20028;-72
2022/12/17 14:38:26;;;;;;;68.63;36.95;;;5.30;99.90;;;;;;5074115;28;20071;-72
2022/12/17 14:40:52;;;;;;;75.10;37.28;;;5.40;99.90;;;;;;5074172;28;20024;-72
2022/12/17 14:43:27;;;;;;;69.95;39.03;;;5.30;99.90;;;;;;5074157;28;20020;-71
2022/12/17 14:48:59;;;;;;;;;;;5.40;99.90;;;;;;5074601;28;20058;-72
2022/12/17 14:51:36;;;;;;;72.03;37.50;;;5.30;99.90;;;;;;5059827;28;19909;-72
2022/12/17 14:54:17;;;;;;;65.50;36.95;;;5.20;99.90;;;;;;5054177;28;20553;-72
2022/12/17 14:56:43;;;;;;;;;;;5.10;99.90;;;;;;5058490;28;20036;-72
2022/12/17 14:59:30;;;;;;;63.28;35.17;;;5.10;99.90;;;;;;5057975;28;19917;-71
2022/12/17 15:01:58;;;;;;;61.10;36.25;;;5.10;99.90;;;;;;5057819;28;20056;-71
2022/12/17 15:04:24;;;;;;;64.20;36.95;;;5.10;99.90;;;;;;5057944;28;20029;-71
2022/12/17 15:06:54;;;;;;;67.45;39.92;;;5.10;99.90;;;;;;5057876;28;20054;-71
2022/12/17 15:09:20;;;;;;;60.65;34.85;;;5.20;99.90;;;;;;5063365;28;20033;-72
2022/12/17 15:11:45;;;;;;;58.15;33.28;;;5.10;99.90;;;;;;5077742;28;20467;-72
2022/12/17 15:14:11;;;;;;;55.70;33.47;;;5.10;99.90;;;;;;5077612;28;20033;-72
2022/12/17 15:16:37;;;;;;;54.80;32.40;;;5.20;99.90;;;;;;5077205;28;20047;-71
2022/12/17 15:19:03;;;;;;;63.83;36.03;;;5.20;99.90;;;;;;5077430;28;20506;-72
2022/12/17 15:21:29;;;;;;;60.55;34.38;;;5.20;99.90;;;;;;5077723;28;20032;-72
2022/12/17 15:23:55;;;;;;;54.22;32.88;;;5.20;99.90;;;;;;5077464;28;20078;-71
2022/12/17 15:26:22;;;;;;;60.95;35.03;;;5.10;99.90;;;;;;5077597;28;20032;-72
2022/12/17 15:28:48;;;;;;;59.35;36.42;;;5.10;99.90;;;;;;5077231;28;20038;-72
2022/12/17 15:31:14;;;;;;;59.50;33.53;;;5.00;99.90;;;;;;5077405;28;20028;-72
2022/12/17 15:33:41;;;;;;;60.80;35.47;;;5.00;99.90;;;;;;5077224;28;20454;-71
2022/12/17 15:36:10;;;;;;;76.03;41.22;;;5.00;99.90;;;;;;5077695;28;20482;-72
2022/12/17 15:38:37;;;;;;;58.90;33.28;;;5.10;99.90;;;;;;5077047;28;20025;-72
2022/12/17 15:43:09;;;;;;;52.42;31.10;;;5.10;99.90;;;;;;5077118;28;20024;-72
2022/12/17 15:43:51;;;;;;;55.95;32.53;;;5.10;99.90;;;;;;5077092;28;20040;-71
2022/12/17 15:46:17;;;;;;;60.72;34.30;;;5.10;99.90;;;;;;5077175;28;20438;-72
2022/12/17 15:48:43;;;;;;;55.85;33.10;;;5.10;99.90;;;;;;5077097;28;20020;-72
2022/12/17 15:51:09;;;;;;;54.83;32.08;;;5.10;99.90;;;;;;5065094;28;20071;-72
2022/12/17 15:53:35;;;;;;;60.88;34.35;;;5.20;99.90;;;;;;5057122;28;20384;-72
2022/12/17 15:56:02;;;;;;;53.70;32.30;;;5.20;99.90;;;;;;5056716;28;20032;-72
2022/12/17 15:58:28;;;;;;;60.38;33.50;;;5.30;99.90;;;;;;5056903;28;20029;-72
2022/12/17 16:00:54;;;;;;;62.15;36.13;;;5.20;99.90;;;;;;5056713;28;20379;-72
2022/12/17 16:03:20;;;;;;;63.33;37.40;;;5.10;99.90;;;;;;5056504;28;20025;-72
2022/12/17 16:05:46;;;;;;;65.32;36.67;;;5.00;99.90;;;;;;5056711;28;20021;-72
2022/12/17 16:08:12;;;;;;;70.63;39.65;;;5.10;99.90;;;;;;5056074;28;20029;-72
2022/12/17 16:10:38;;;;;;;63.97;35.63;;;5.10;99.90;;;;;;5073211;28;20417;-72
2022/12/17 16:13:04;;;;;;;58.92;34.53;;;5.10;99.90;;;;;;5076514;28;20486;-72
2022/12/17 16:15:30;;;;;;;65.43;36.85;;;5.00;99.90;;;;;;5076548;28;20082;-71
2022/12/17 16:17:56;;;;;;;65.78;36.42;;;5.10;99.90;;;;;;5076120;28;20055;-72
2022/12/17 16:20:22;;;;;;;60.50;34.88;;;5.00;99.90;;;;;;5076532;28;20040;-71
2022/12/17 16:22:48;;;;;;;56.15;31.35;;;5.00;99.90;;;;;;5076420;28;20074;-72
2022/12/17 16:25:14;;;;;;;54.15;29.67;;;5.00;99.90;;;;;;5076249;28;20070;-72
2022/12/17 16:27:43;;;;;;;57.08;29.33;;;4.90;99.90;;;;;;5076507;28;20048;-72
2022/12/17 16:30:10;;;;;;;52.90;28.38;;;4.90;99.90;;;;;;5076276;28;20033;-71
2022/12/17 16:32:36;;;;;;;50.20;28.65;;;4.90;99.90;;;;;;5076277;28;20028;-72
2022/12/17 16:35:03;;;;;;;47.00;28.30;;;4.90;99.90;;;;;;5076255;28;20497;-72
2022/12/17 16:37:29;;;;;;;44.50;25.58;;;4.80;99.90;;;;;;5076144;28;20028;-72
2022/12/17 16:39:55;;;;;;;45.72;25.80;;;4.90;99.90;;;;;;5074806;28;20418;-72
2022/12/17 16:42:21;;;;;;;50.13;25.88;;;4.90;99.90;;;;;;5076094;28;20025;-72
2022/12/17 16:44:47;;;;;;;46.83;24.90;;;4.90;99.90;;;;;;5076070;28;20074;-72
2022/12/17 16:47:13;;;;;;;43.50;23.25;;;4.80;99.90;;;;;;5076053;28;20020;-72
2022/12/17 16:49:38;;;;;;;44.30;25.63;;;4.80;99.90;;;;;;5075954;28;20500;-72
2022/12/17 16:52:04;;;;;;;44.72;24.05;;;4.80;99.90;;;;;;5056194;28;20313;-71
2022/12/17 16:54:32;;;;;;;44.78;25.08;;;4.80;99.90;;;;;;5055859;28;20175;-71
2022/12/17 16:57:01;;;;;;;41.05;23.80;;;4.70;99.90;;;;;;5055873;28;20029;-71
2022/12/17 16:59:27;;;;;;;41.92;24.48;;;4.60;99.90;;;;;;5055763;28;20043;-71
2022/12/17 17:01:56;;;;;;;38.30;22.70;;;4.60;99.90;;;;;;5055368;28;20057;-71
2022/12/17 17:04:25;;;;;;;42.70;23.23;;;4.50;99.90;;;;;;5055645;28;20025;-71
2022/12/17 17:06:54;;;;;;;46.83;24.27;;;4.60;99.90;;;;;;5055413;28;20537;-72
2022/12/17 17:09:21;;;;;;;45.20;24.65;;;4.60;99.90;;;;;;5061591;28;20031;-71
2022/12/17 17:11:48;;;;;;;53.05;26.23;;;4.70;99.90;;;;;;5075399;28;20032;-72
2022/12/17 17:14:14;;;;;;;54.13;28.80;;;4.70;99.90;;;;;;5075558;28;20390;-72
2022/12/17 17:16:40;;;;;;;61.97;36.08;;;4.60;99.90;;;;;;5075052;28;20035;-71
2022/12/17 17:19:06;;;;;;;61.70;34.17;;;4.60;99.90;;;;;;5074478;28;20025;-72
2022/12/17 17:21:35;;;;;;;59.20;30.65;;;4.60;99.90;;;;;;5074972;28;20020;-72
2022/12/17 17:24:05;;;;;;;52.63;28.52;;;4.70;99.90;;;;;;5075468;28;20040;-72
2022/12/17 17:26:34;;;;;;;49.83;27.55;;;4.60;99.90;;;;;;5075216;28;20032;-72
2022/12/17 17:29:01;;;;;;;43.53;23.85;;;4.70;99.90;;;;;;5075072;28;20434;-72
2022/12/17 17:31:27;;;;;;;45.72;25.08;;;4.60;99.90;;;;;;5075117;28;20370;-72
2022/12/17 17:33:53;;;;;;;43.22;24.55;;;4.50;99.90;;;;;;5075282;28;20085;-71
2022/12/17 17:36:28;;;;;;;40.58;22.92;;;4.50;99.90;;;;;;5074940;28;20039;-71
2022/12/17 17:38:58;;;;;;;45.75;25.95;;;4.50;99.90;;;;;;5074950;28;20083;-71
2022/12/17 17:41:27;;;;;;;43.90;24.13;;;4.60;99.90;;;;;;5075133;28;20093;-71
2022/12/17 17:44:02;;;;;;;44.72;24.85;;;4.60;99.90;;;;;;5075203;28;20024;-72
2022/12/17 17:46:29;;;;;;;49.72;25.38;;;4.60;99.90;;;;;;5074770;28;20024;-72
2022/12/17 17:48:58;;;;;;;54.75;30.50;;;4.60;99.90;;;;;;5074840;28;20169;-71
2022/12/17 17:51:29;;;;;;;53.78;29.15;;;4.60;99.90;;;;;;5060942;28;20040;-72
2022/12/17 17:53:55;;;;;;;52.10;28.38;;;4.60;99.90;;;;;;5054725;28;20489;-72
2022/12/17 17:56:24;;;;;;;49.35;26.33;;;4.60;99.90;;;;;;5054627;28;20035;-72
2022/12/17 17:58:53;;;;;;;43.33;24.85;;;4.50;99.90;;;;;;5054595;28;20032;-72
2022/12/17 18:01:23;;;;;;;47.38;25.40;;;4.40;99.90;;;;;;5054508;28;20472;-71
2022/12/17 18:03:50;;;;;;;46.97;27.35;;;4.30;99.90;;;;;;5054485;28;20032;-71
2022/12/17 18:06:16;;;;;;;44.78;24.48;;;4.30;99.90;;;;;;5054644;28;20021;-71
2022/12/17 18:08:42;;;;;;;47.90;24.90;;;4.40;99.90;;;;;;5055023;28;20031;-71
2022/12/17 18:11:14;;;;;;;44.28;24.17;;;4.30;99.90;;;;;;5074440;28;20036;-71
2022/12/17 18:13:55;;;;;;;48.65;26.95;;;4.40;99.90;;;;;;5074288;28;20112;-72
2022/12/17 18:16:26;;;;;;;48.95;26.58;;;4.40;99.90;;;;;;5074354;28;20073;-71
2022/12/17 18:18:54;;;;;;;53.13;29.92;;;4.40;99.90;;;;;;5074121;28;20060;-71
2022/12/17 18:21:21;;;;;;;50.50;27.80;;;4.50;99.90;;;;;;5074409;28;20581;-72
2022/12/17 18:23:47;;;;;;;75.72;37.78;;;4.40;99.90;;;;;;5074416;28;20092;-72
2022/12/17 18:26:16;;;;;;;68.57;35.30;;;4.50;99.90;;;;;;5074148;28;20028;-72
2022/12/17 18:28:43;;;;;;;74.43;33.40;;;4.30;99.90;;;;;;5074231;28;20074;-72
2022/12/17 18:31:19;;;;;;;61.95;32.75;;;4.40;99.90;;;;;;5074420;28;20051;-72
2022/12/17 18:33:52;;;;;;;59.72;30.15;;;4.20;99.90;;;;;;5074590;28;20481;-72
2022/12/17 18:36:27;;;;;;;66.88;34.97;;;4.40;99.90;;;;;;5074184;28;20085;-72
2022/12/17 18:38:58;;;;;;;46.13;25.77;;;4.50;99.90;;;;;;5074156;28;20070;-72
2022/12/17 18:44:10;;;;;;;57.00;27.80;;;4.30;99.90;;;;;;5074276;28;20052;-71
2022/12/17 18:46:37;;;;;;;49.03;26.08;;;4.30;99.90;;;;;;5074034;28;20033;-71
2022/12/17 18:49:06;;;;;;;52.03;27.30;;;4.40;99.90;;;;;;5074142;28;20060;-71
2022/12/17 18:51:34;;;;;;;54.97;27.55;;;4.40;99.90;;;;;;5058967;28;20029;-71
2022/12/17 18:54:01;;;;;;;53.90;27.95;;;4.30;99.90;;;;;;5054020;28;20048;-72
2022/12/17 18:56:28;;;;;;;55.38;28.38;;;4.30;99.90;;;;;;5054066;28;20028;-72
2022/12/17 18:58:55;;;;;;;58.97;29.85;;;4.40;99.90;;;;;;5054141;28;20065;-71
2022/12/17 19:01:26;;;;;;;59.53;28.35;;;4.40;99.90;;;;;;5053781;28;20037;-72
2022/12/17 19:03:53;;;;;;;51.72;27.15;;;4.30;99.90;;;;;;5053939;28;20031;-72
2022/12/17 19:06:21;;;;;;;46.70;25.60;;;4.30;99.90;;;;;;5054043;28;20138;-72
2022/12/17 19:08:47;;;;;;;43.40;23.73;;;4.40;99.90;;;;;;5054927;28;20052;-71
2022/12/17 19:11:17;;;;;;;48.65;24.38;;;4.30;99.90;;;;;;5074023;28;20028;-71
2022/12/17 19:13:44;;;;;;;48.90;26.27;;;4.30;99.90;;;;;;5073849;28;20170;-72
2022/12/17 19:16:22;;;;;;;73.90;34.97;;;4.20;99.90;;;;;;5073731;28;20033;-72
2022/12/17 19:18:56;;;;;;;47.05;25.77;;;4.10;99.90;;;;;;5073712;28;20036;-72
2022/12/17 19:21:23;;;;;;;47.83;25.55;;;4.10;99.90;;;;;;5073821;28;20047;-72
2022/12/17 19:23:54;;;;;;;45.95;23.40;;;4.10;99.90;;;;;;5073914;28;20032;-72
2022/12/17 19:26:20;;;;;;;45.83;23.40;;;4.20;99.90;;;;;;5073676;28;20029;-72
2022/12/17 19:28:49;;;;;;;48.47;24.75;;;4.20;99.90;;;;;;5073738;28;20021;-72
2022/12/17 19:31:18;;;;;;;48.88;24.63;;;4.30;99.90;;;;;;5073774;28;20525;-71
2022/12/17 19:33:44;;;;;;;42.85;23.60;;;4.30;99.90;;;;;;5073780;28;20021;-72
2022/12/17 19:36:13;;;;;;;40.33;21.52;;;4.20;99.90;;;;;;5073604;28;20055;-72
2022/12/17 19:38:39;;;;;;;39.60;20.13;;;4.10;99.90;;;;;;5073727;28;20056;-72
2022/12/17 19:41:14;;;;;;;34.50;19.48;;;4.30;99.90;;;;;;5073474;28;20028;-72
2022/12/17 19:43:41;;;;;;;44.33;21.08;;;4.30;99.90;;;;;;5077210;28;20431;-72
2022/12/17 19:46:11;;;;;;;37.08;19.42;;;4.20;99.90;;;;;;5077132;28;20033;-72
2022/12/17 19:48:39;;;;;;;40.75;21.35;;;4.10;99.90;;;;;;5076918;28;20056;-72
2022/12/17 19:51:06;;;;;;;48.13;23.55;;;4.10;99.90;;;;;;5065828;28;20064;-72
2022/12/17 19:53:33;;;;;;;42.85;22.92;;;4.10;99.90;;;;;;5056835;28;20049;-72
2022/12/17 19:56:18;;;;;;;40.75;21.65;;;4.10;99.90;;;;;;5057117;28;20021;-72
2022/12/17 19:58:46;;;;;;;41.80;20.42;;;4.10;99.90;;;;;;5056883;28;20025;-72
2022/12/17 20:01:20;;;;;;;35.30;21.13;;;4.10;99.90;;;;;;5057151;28;20064;-72
2022/12/17 20:03:46;;;;;;;38.45;20.48;;;4.00;99.90;;;;;;5056635;28;20097;-71
2022/12/17 20:06:14;;;;;;;39.25;21.08;;;4.00;99.90;;;;;;5056848;28;20606;-72
2022/12/17 20:08:40;;;;;;;39.28;21.25;;;4.00;99.90;;;;;;5057038;28;20031;-71
2022/12/17 20:14:07;;;;;;;58.15;25.30;;;3.90;99.90;;;;;;5076658;28;20032;-72
2022/12/17 20:16:40;;;;;;;40.88;20.60;;;3.90;99.90;;;;;;5076339;28;20028;-71
2022/12/17 20:19:10;;;;;;;42.95;20.50;;;3.90;99.90;;;;;;5076542;28;20469;-72
2022/12/17 20:21:36;;;;;;;36.45;20.48;;;3.90;99.90;;;;;;5076600;28;20024;-71
2022/12/17 20:24:02;;;;;;;38.17;20.88;;;3.90;99.90;;;;;;5076430;28;20559;-72
2022/12/17 20:26:28;;;;;;;40.28;21.90;;;3.90;99.90;;;;;;5076301;28;20031;-71
2022/12/17 20:28:54;;;;;;;37.20;20.88;;;3.90;99.90;;;;;;5076257;28;20116;-72
2022/12/17 20:31:21;;;;;;;35.35;18.95;;;3.90;99.90;;;;;;5076253;28;20025;-72
2022/12/17 20:33:46;;;;;;;40.13;20.50;;;3.90;99.90;;;;;;5076177;28;20031;-71
2022/12/17 20:36:15;;;;;;;73.55;36.05;;;3.90;99.90;;;;;;5076356;28;20025;-71
2022/12/17 20:38:42;;;;;;;67.47;32.92;;;3.80;99.90;;;;;;5076130;28;20028;-71
2022/12/17 20:41:10;;;;;;;56.55;29.27;;;3.80;99.90;;;;;;5076095;28;20029;-72
2022/12/17 20:43:36;;;;;;;61.65;31.50;;;4.10;99.90;;;;;;5076032;28;20031;-71
2022/12/17 20:46:03;;;;;;;61.63;32.17;;;4.00;99.90;;;;;;5076115;28;20166;-72
2022/12/17 20:48:28;;;;;;;42.75;23.20;;;4.00;99.90;;;;;;5075529;28;20037;-71
2022/12/17 20:50:54;;;;;;;46.78;24.35;;;4.10;99.90;;;;;;5066361;28;20021;-72
2022/12/17 20:53:20;;;;;;;42.95;24.08;;;4.10;99.90;;;;;;5055854;28;20036;-71
2022/12/17 20:55:46;;;;;;;44.10;23.05;;;4.00;99.90;;;;;;5055861;28;20021;-71
2022/12/17 20:58:14;;;;;;;49.47;24.77;;;4.00;99.90;;;;;;5055861;28;20025;-72
2022/12/17 21:00:40;;;;;;;41.45;21.88;;;4.10;99.90;;;;;;5055877;28;20379;-72
2022/12/17 21:03:06;;;;;;;41.67;22.10;;;4.10;99.90;;;;;;5055670;28;20482;-71
2022/12/17 21:05:34;;;;;;;38.00;21.60;;;4.10;99.90;;;;;;5055589;28;20029;-71
2022/12/17 21:08:00;;;;;;;49.30;23.80;;;4.20;99.90;;;;;;5055712;28;20451;-71
2022/12/17 21:10:26;;;;;;;39.60;20.80;;;4.20;99.90;;;;;;5070564;28;20104;-71
2022/12/17 21:15:37;;;;;;;65.10;23.80;;;4.10;99.90;;;;;;5075235;28;20092;-71
2022/12/17 21:18:03;;;;;;;71.88;33.40;;;4.20;99.90;;;;;;5075106;28;20095;-72
2022/12/17 21:20:28;;;;;;;43.22;22.83;;;4.10;99.90;;;;;;5075389;28;20029;-72
2022/12/17 21:22:54;;;;;;;47.30;23.00;;;4.20;99.90;;;;;;5075300;28;20027;-71
2022/12/17 21:25:20;;;;;;;38.33;20.10;;;4.10;99.90;;;;;;5075090;28;20482;-71
2022/12/17 21:27:46;;;;;;;35.40;17.83;;;4.20;99.90;;;;;;5075051;28;20032;-72
2022/12/17 21:30:15;;;;;;;36.50;18.70;;;4.20;99.90;;;;;;5075356;28;20130;-71
2022/12/17 21:32:41;;;;;;;51.05;26.15;;;4.20;99.90;;;;;;5075397;28;20083;-72
2022/12/17 21:35:07;;;;;;;65.68;30.23;;;4.10;99.90;;;;;;5075043;28;20113;-72
2022/12/17 21:37:33;;;;;;;57.90;29.48;;;4.10;99.90;;;;;;5074931;28;20103;-72
2022/12/17 21:40:00;;;;;;;62.40;30.98;;;4.10;99.90;;;;;;5074931;28;20071;-72
2022/12/17 21:45:10;;;;;;;53.80;26.27;;;4.00;99.90;;;;;;5074881;28;20490;-72
2022/12/17 21:47:36;;;;;;;61.67;32.05;;;4.00;99.90;;;;;;5074830;28;20047;-71
2022/12/17 21:50:02;;;;;;;64.38;32.58;;;4.00;99.90;;;;;;5072123;28;20142;-72
2022/12/17 21:52:28;;;;;;;68.90;33.00;;;3.90;99.90;;;;;;5054755;28;20467;-71
2022/12/17 21:54:54;;;;;;;68.53;32.17;;;3.90;99.90;;;;;;5054766;28;20108;-72
2022/12/17 21:57:20;;;;;;;52.60;26.35;;;3.90;99.90;;;;;;5054800;28;20507;-71
2022/12/17 21:59:46;;;;;;;55.80;28.17;;;3.90;99.90;;;;;;5054652;28;20462;-71
2022/12/17 22:02:12;;;;;;;48.20;24.52;;;3.80;99.90;;;;;;5054694;28;20447;-72
2022/12/17 22:04:38;;;;;;;59.05;29.42;;;3.80;99.90;;;;;;5054004;28;20071;-71
2022/12/17 22:07:04;;;;;;;57.22;28.27;;;3.80;99.90;;;;;;5054518;28;20813;-71
2022/12/17 22:09:30;;;;;;;61.72;28.35;;;3.80;99.90;;;;;;5061642;28;20017;-71
2022/12/17 22:14:40;;;;;;;63.42;32.22;;;3.90;99.90;;;;;;5074539;28;20032;-71
2022/12/17 22:17:05;;;;;;;58.13;30.05;;;3.90;99.90;;;;;;5072699;28;20136;-71
2022/12/17 22:19:32;;;;;;;63.83;32.40;;;4.00;99.90;;;;;;5074421;28;20062;-72
2022/12/17 22:21:58;;;;;;;61.97;30.60;;;4.00;99.90;;;;;;5074555;28;20054;-72
2022/12/17 22:24:24;;;;;;;71.53;34.40;;;4.00;99.90;;;;;;5074525;28;20078;-71
2022/12/17 22:26:58;;;;;;;67.20;33.42;;;3.90;99.90;;;;;;5074101;28;20052;-71
2022/12/17 22:34:55;;;;;;;50.38;26.10;;;4.00;99.90;;;;;;5074296;28;20433;-71
2022/12/17 22:37:21;;;;;;;66.40;32.67;;;3.90;99.90;;;;;;5074151;28;20028;-71
2022/12/17 22:39:47;;;;;;;61.60;27.63;;;3.80;99.90;;;;;;5074336;28;20567;-71
2022/12/17 22:44:57;;;;;;;64.50;30.23;;;3.80;99.90;;;;;;5074261;28;20033;-71
2022/12/17 22:47:23;;;;;;;62.38;29.52;;;3.90;99.90;;;;;;5074256;28;20100;-71
2022/12/17 22:49:49;;;;;;;56.10;27.50;;;3.80;99.90;;;;;;5073157;28;20133;-71
2022/12/17 22:52:15;;;;;;;58.15;28.83;;;3.80;99.90;;;;;;5053968;28;20021;-71
2022/12/17 22:54:41;;;;;;;68.90;35.17;;;3.70;99.90;;;;;;5053947;28;20029;-71
2022/12/17 22:57:10;;;;;;;49.42;27.20;;;3.80;99.90;;;;;;5053994;28;20055;-71
2022/12/17 22:59:36;;;;;;;50.03;25.58;;;3.80;99.90;;;;;;5054072;28;20086;-71
2022/12/17 23:02:02;;;;;;;44.88;23.02;;;3.80;99.90;;;;;;5053911;28;20104;-71
2022/12/17 23:04:27;;;;;;;55.38;28.02;;;3.80;99.90;;;;;;5053966;28;20492;-71
2022/12/17 23:06:53;;;;;;;48.30;24.23;;;3.80;99.90;;;;;;5054101;28;20032;-71
2022/12/17 23:09:19;;;;;;;46.97;23.30;;;3.90;99.90;;;;;;5059390;28;20113;-71
2022/12/17 23:11:47;;;;;;;48.80;23.55;;;3.90;99.90;;;;;;5073936;28;20020;-71
2022/12/17 23:14:13;;;;;;;49.35;24.60;;;3.80;99.90;;;;;;5073942;28;20474;-71
2022/12/17 23:16:40;;;;;;;49.95;24.05;;;3.80;99.90;;;;;;5074465;28;20493;-71
2022/12/17 23:19:07;;;;;;;55.30;26.55;;;3.90;99.90;;;;;;5077723;28;20440;-71
2022/12/17 23:21:33;;;;;;;52.97;25.60;;;3.80;99.90;;;;;;5077564;28;20505;-71
2022/12/17 23:23:59;;;;;;;52.35;25.70;;;3.80;99.90;;;;;;5077529;28;20549;-71
2022/12/17 23:26:28;;;;;;;49.60;24.55;;;3.80;99.90;;;;;;5077537;28;20032;-71
2022/12/17 23:29:00;;;;;;;44.60;23.02;;;3.90;99.90;;;;;;5077448;28;20093;-71
2022/12/17 23:31:31;;;;;;;47.25;23.95;;;3.90;99.90;;;;;;5077334;28;20047;-71
2022/12/17 23:33:56;;;;;;;43.03;22.38;;;3.80;99.90;;;;;;5077554;28;20024;-71
2022/12/17 23:36:24;;;;;;;43.00;21.90;;;3.90;99.90;;;;;;5077732;28;20023;-72
2022/12/17 23:38:51;;;;;;;51.78;25.73;;;3.90;99.90;;;;;;5077205;28;20024;-71
2022/12/17 23:41:21;;;;;;;41.75;22.05;;;3.90;99.90;;;;;;5075787;28;20039;-71
2022/12/17 23:43:48;;;;;;;46.55;23.55;;;3.70;99.90;;;;;;5077350;28;20474;-71
2022/12/17 23:46:16;;;;;;;42.30;21.92;;;3.70;99.90;;;;;;5077168;28;20052;-71
2022/12/17 23:48:43;;;;;;;38.88;21.20;;;3.80;99.90;;;;;;5077236;28;20043;-71
2022/12/17 23:51:10;;;;;;;46.10;23.00;;;3.80;99.90;;;;;;5065070;28;20051;-71
2022/12/17 23:53:36;;;;;;;42.78;21.42;;;3.80;99.90;;;;;;5057003;28;20025;-71
2022/12/17 23:56:05;;;;;;;45.92;21.60;;;3.80;99.90;;;;;;5057057;28;20021;-71
2022/12/17 23:58:32;;;;;;;46.88;23.33;;;3.80;99.90;;;;;;5056896;28;20471;-71
